Time;durP1;ratioP1;P1;durP2;ratioP2;P2;SDS_P1;SDS_P2;PMS_P1;PMS_P2;Temp;Humidity;BMP_temperature;BMP_pressure;BME280_temperature;BME280_humidity;BME280_pressure;Samples;Min_cycle;Max_cycle;Signal;HPM_P1;HPM_P2
2023/10/25 00:02:06;;;;;;;16.53;7.20;;;14.90;99.90;;;13.44;100.00;98626.44;10291078;28;96726;-88
2023/10/25 00:07:10;;;;;;;15.80;6.97;;;14.90;99.90;;;13.43;100.00;98619.44;10306350;28;96552;-87
2023/10/25 00:12:14;;;;;;;10.15;6.20;;;14.90;99.90;;;13.46;100.00;98622.47;10287789;28;96946;-87
2023/10/25 00:17:18;;;;;;;13.50;6.22;;;14.90;99.90;;;13.43;100.00;98612.25;10297743;28;98063;-86
2023/10/25 00:22:21;;;;;;;12.05;6.47;;;14.80;99.90;;;13.41;100.00;98601.00;10336883;28;96648;-86
2023/10/25 00:27:25;;;;;;;9.30;5.78;;;14.80;99.90;;;13.42;100.00;98594.59;10319822;28;96830;-87
2023/10/25 00:32:28;;;;;;;12.80;5.55;;;14.80;99.90;;;13.43;100.00;98580.22;10308392;28;96674;-87
2023/10/25 00:37:32;;;;;;;12.15;5.65;;;14.80;99.90;;;13.46;100.00;98578.97;10325098;28;96629;-87
2023/10/25 00:42:36;;;;;;;11.00;5.37;;;14.90;99.90;;;13.54;100.00;98584.00;10313524;28;96654;-86
2023/10/25 00:47:43;;;;;;;10.65;6.40;;;14.90;99.90;;;13.54;100.00;98563.44;10340173;28;96546;-86
2023/10/25 00:52:47;;;;;;;11.40;6.67;;;15.00;99.90;;;13.54;100.00;98559.97;10315152;28;96696;-86
2023/10/25 00:57:50;;;;;;;17.65;6.63;;;15.00;99.90;;;13.52;100.00;98554.06;10290237;28;96786;-86
2023/10/25 01:02:54;;;;;;;17.55;7.50;;;14.90;99.90;;;13.50;100.00;98540.94;10287600;28;98757;-86
2023/10/25 01:07:58;;;;;;;14.93;7.80;;;14.90;99.90;;;13.48;100.00;98545.69;10327187;28;96688;-86
2023/10/25 01:13:02;;;;;;;12.95;7.47;;;14.90;99.90;;;13.47;100.00;98541.38;10347384;28;96625;-86
2023/10/25 01:18:06;;;;;;;12.40;7.25;;;14.90;99.90;;;13.45;100.00;98530.13;10331182;28;96712;-86
2023/10/25 01:23:10;;;;;;;16.80;6.90;;;14.90;99.90;;;13.46;100.00;98517.59;10351898;28;97806;-87
2023/10/25 01:28:14;;;;;;;15.73;7.93;;;14.90;99.90;;;13.45;100.00;98500.78;10329581;28;97083;-86
2023/10/25 01:33:18;;;;;;;16.48;7.63;;;14.90;99.90;;;13.44;100.00;98499.16;10308498;28;96656;-86
2023/10/25 01:38:21;;;;;;;20.08;7.78;;;14.90;99.90;;;13.44;100.00;98480.47;10334907;28;97435;-86
2023/10/25 01:43:25;;;;;;;14.23;8.13;;;14.90;99.90;;;13.45;100.00;98474.09;10315308;28;97569;-86
2023/10/25 01:48:29;;;;;;;12.82;6.90;;;14.90;99.90;;;13.45;100.00;98465.28;10313863;28;96656;-86
2023/10/25 01:53:36;;;;;;;11.20;7.55;;;14.90;99.90;;;13.42;100.00;98471.88;10320206;28;97256;-86
2023/10/25 01:58:40;;;;;;;9.30;5.68;;;14.80;99.90;;;13.42;100.00;98465.72;10311840;28;97682;-86
2023/10/25 02:03:43;;;;;;;15.07;6.50;;;14.90;99.90;;;13.43;100.00;98459.34;10308349;28;96814;-85
2023/10/25 02:08:47;;;;;;;11.63;5.57;;;14.80;99.90;;;13.44;100.00;98456.47;10321952;28;96579;-85
2023/10/25 02:13:51;;;;;;;11.68;6.30;;;14.90;99.90;;;13.49;100.00;98458.44;10335333;28;96837;-85
2023/10/25 02:18:55;;;;;;;13.30;6.78;;;14.90;99.90;;;13.50;100.00;98449.41;10331227;28;97425;-85
2023/10/25 02:23:58;;;;;;;12.88;6.43;;;14.90;99.90;;;13.53;100.00;98449.75;10334233;28;98421;-85
2023/10/25 02:29:02;;;;;;;16.38;7.03;;;15.00;99.90;;;13.55;100.00;98438.84;10308621;28;96778;-85
2023/10/25 02:34:06;;;;;;;10.98;6.03;;;15.00;99.90;;;13.57;100.00;98434.09;10345528;28;96695;-85
2023/10/25 02:39:10;;;;;;;13.80;5.78;;;15.00;99.90;;;13.57;100.00;98426.09;10331768;28;97751;-85
2023/10/25 02:44:15;;;;;;;11.82;6.43;;;15.00;99.90;;;13.61;100.00;98430.75;10331795;28;96701;-85
2023/10/25 02:49:19;;;;;;;14.55;6.22;;;15.00;99.90;;;13.62;100.00;98431.56;10313898;28;96684;-85
2023/10/25 02:54:23;;;;;;;11.80;5.97;;;15.00;99.90;;;13.64;100.00;98440.94;10346242;28;96711;-86
2023/10/25 02:59:26;;;;;;;13.43;5.43;;;15.10;99.90;;;13.68;100.00;98427.16;10311865;28;98533;-86
2023/10/25 03:04:30;;;;;;;16.73;5.45;;;15.10;99.90;;;13.68;100.00;98424.50;10328841;28;96531;-87
2023/10/25 03:09:34;;;;;;;36.60;13.93;;;15.10;99.90;;;13.69;100.00;98424.25;10334011;28;96798;-87
2023/10/25 03:14:38;;;;;;;16.30;5.63;;;15.10;99.90;;;13.69;100.00;98420.78;10336148;28;96678;-86
2023/10/25 03:19:41;;;;;;;6.55;3.53;;;15.10;99.90;;;13.71;100.00;98429.34;10310601;28;97495;-87
2023/10/25 03:24:45;;;;;;;2.75;0.77;;;15.10;99.90;;;13.69;100.00;98428.78;10343540;28;97339;-89
2023/10/25 03:29:49;;;;;;;1.17;0.22;;;15.00;99.90;;;13.53;100.00;98444.41;10298565;28;96584;-87
2023/10/25 03:34:53;;;;;;;0.70;0.32;;;14.90;99.90;;;13.31;100.00;98444.16;10299326;28;98398;-87
2023/10/25 03:39:57;;;;;;;0.27;0.17;;;14.60;99.90;;;13.15;100.00;98457.28;10339998;28;96692;-87
2023/10/25 03:45:00;;;;;;;0.53;0.33;;;14.50;99.90;;;13.00;100.00;98458.47;10330092;28;96603;-87
2023/10/25 03:50:05;;;;;;;1.03;0.60;;;14.30;99.90;;;12.90;100.00;98449.41;10310292;28;96636;-87
2023/10/25 03:55:09;;;;;;;2.53;1.17;;;14.20;99.90;;;12.82;100.00;98461.19;10347085;28;96624;-87
2023/10/25 04:00:14;;;;;;;3.13;1.73;;;14.10;99.90;;;12.74;100.00;98472.16;10326368;28;96663;-88
2023/10/25 04:05:17;;;;;;;4.40;2.40;;;14.00;99.90;;;12.68;100.00;98468.53;10312816;28;97046;-88
2023/10/25 04:10:21;;;;;;;3.33;2.07;;;14.00;99.90;;;12.64;100.00;98477.19;10341832;28;98344;-87
2023/10/25 04:15:25;;;;;;;4.97;2.27;;;13.90;99.90;;;12.58;100.00;98478.91;10316114;28;96788;-87
2023/10/25 04:20:32;;;;;;;4.17;2.23;;;13.90;99.90;;;12.50;100.00;98465.88;10305736;28;96728;-87
2023/10/25 04:25:36;;;;;;;3.60;1.90;;;13.80;99.90;;;12.42;100.00;98477.66;10345479;28;96461;-85
2023/10/25 04:30:40;;;;;;;4.33;1.80;;;13.70;99.90;;;12.34;100.00;98477.94;10324870;28;97794;-86
2023/10/25 04:35:44;;;;;;;4.10;2.30;;;13.70;99.90;;;12.27;100.00;98479.84;10347236;28;96691;-86
2023/10/25 04:40:48;;;;;;;4.57;2.93;;;13.60;99.90;;;12.19;100.00;98482.81;10324673;28;96997;-88
2023/10/25 04:45:52;;;;;;;5.53;2.93;;;13.50;99.90;;;12.14;100.00;98493.31;10325049;28;96534;-86
2023/10/25 04:50:56;;;;;;;6.53;2.20;;;13.50;99.90;;;12.10;100.00;98495.56;10324919;28;98340;-85
2023/10/25 04:56:01;;;;;;;3.80;1.97;;;13.40;99.90;;;12.07;100.00;98505.88;10334193;28;97339;-85
2023/10/25 05:01:14;;;;;;;2.83;1.70;;;13.40;99.90;;;12.00;100.00;98503.25;10329265;28;97972;-85
2023/10/25 05:06:18;;;;;;;3.43;1.87;;;13.30;99.90;;;11.96;100.00;98512.72;10324752;28;96642;-84
2023/10/25 05:11:26;;;;;;;4.17;2.03;;;13.30;99.90;;;11.92;100.00;98520.31;10332027;28;96677;-84
2023/10/25 05:16:30;;;;;;;6.47;3.60;;;13.30;99.90;;;11.91;100.00;98529.31;10315718;28;98223;-85
2023/10/25 05:21:39;;;;;;;8.33;4.10;;;13.30;99.90;;;11.88;100.00;98528.97;10313971;28;98930;-85
2023/10/25 05:26:44;;;;;;;7.00;3.73;;;13.30;99.90;;;11.84;100.00;98541.88;10317018;28;96659;-85
2023/10/25 05:31:48;;;;;;;7.00;4.27;;;13.30;99.90;;;11.87;100.00;98567.22;10326382;28;97524;-84
2023/10/25 05:36:52;;;;;;;7.93;4.33;;;13.20;99.90;;;11.86;100.00;98573.59;10311394;28;96490;-85
2023/10/25 05:42:04;;;;;;;9.83;4.70;;;13.20;99.90;;;11.86;100.00;98590.38;10296604;28;96578;-85
2023/10/25 05:47:08;;;;;;;8.47;4.47;;;13.20;99.90;;;11.83;100.00;98595.31;10322353;28;98312;-85
2023/10/25 05:52:12;;;;;;;9.23;4.80;;;13.20;99.90;;;11.82;100.00;98602.50;10351759;28;96487;-84
2023/10/25 05:57:16;;;;;;;7.47;4.77;;;13.20;99.90;;;11.82;100.00;98609.66;10370807;28;96558;-85
2023/10/25 06:02:26;;;;;;;7.43;4.13;;;13.20;99.90;;;11.84;100.00;98615.59;10364237;28;96498;-85
2023/10/25 06:07:30;;;;;;;6.80;4.43;;;13.20;99.90;;;11.84;100.00;98637.69;10323737;28;96642;-85
2023/10/25 06:12:35;;;;;;;6.63;4.30;;;13.20;99.90;;;11.85;100.00;98641.97;10336067;28;97335;-85
2023/10/25 06:17:39;;;;;;;6.90;4.40;;;13.20;99.90;;;11.86;100.00;98654.25;10334136;28;96673;-86
2023/10/25 06:22:46;;;;;;;6.13;3.70;;;13.30;99.90;;;11.91;100.00;98677.56;10294887;28;96517;-85
2023/10/25 06:27:50;;;;;;;7.07;4.40;;;13.30;99.90;;;11.95;100.00;98687.59;10306044;28;97516;-85
2023/10/25 06:32:54;;;;;;;6.93;4.03;;;13.30;99.90;;;11.98;100.00;98687.16;10345323;28;96717;-86
2023/10/25 06:37:58;;;;;;;7.20;3.33;;;13.30;99.90;;;12.03;100.00;98692.66;10315177;28;96709;-86
2023/10/25 06:43:03;;;;;;;5.23;3.20;;;13.40;99.90;;;12.10;100.00;98718.41;10325373;28;97459;-84
2023/10/25 06:48:07;;;;;;;7.77;3.33;;;13.50;99.90;;;12.16;100.00;98728.22;10337602;28;97534;-85
2023/10/25 06:53:11;;;;;;;5.77;3.10;;;13.50;99.90;;;12.21;100.00;98728.41;10336103;28;96591;-85
2023/10/25 06:58:15;;;;;;;8.57;3.80;;;13.50;99.90;;;12.26;100.00;98731.25;10321429;28;97823;-84
2023/10/25 07:03:24;;;;;;;5.87;2.63;;;13.60;99.90;;;12.30;100.00;98727.13;10334027;28;97526;-84
2023/10/25 07:08:28;;;;;;;6.27;3.23;;;13.60;99.90;;;12.41;100.00;98718.41;10340604;28;97620;-85
2023/10/25 07:13:32;;;;;;;4.43;3.40;;;13.70;99.90;;;12.63;100.00;98739.38;10326210;28;96658;-85
2023/10/25 07:18:36;;;;;;;5.68;2.80;;;13.90;99.90;;;12.77;100.00;98754.22;10317163;28;96943;-85
2023/10/25 07:23:42;;;;;;;5.17;3.00;;;14.10;99.90;;;12.82;100.00;98765.06;10364071;28;96490;-84
2023/10/25 07:28:46;;;;;;;4.65;2.83;;;14.10;99.90;;;12.86;100.00;98759.09;10304655;28;97702;-84
2023/10/25 07:33:50;;;;;;;5.03;3.20;;;14.20;99.90;;;12.89;100.00;98760.50;10317274;28;97618;-84
2023/10/25 07:38:53;;;;;;;5.80;3.28;;;14.20;99.90;;;12.86;100.00;98750.28;10312428;28;96527;-85
2023/10/25 07:43:58;;;;;;;6.50;3.30;;;14.20;99.90;;;12.85;100.00;98751.31;10321077;28;96998;-86
2023/10/25 07:49:01;;;;;;;5.43;3.10;;;14.20;99.90;;;12.95;100.00;98751.63;10325542;28;98413;-85
2023/10/25 07:54:05;;;;;;;4.15;3.03;;;14.30;99.90;;;13.04;100.00;98766.31;10312251;28;96780;-85
2023/10/25 07:59:10;;;;;;;5.27;2.90;;;14.40;99.90;;;13.10;100.00;98789.47;10333661;28;98439;-85
2023/10/25 08:04:14;;;;;;;4.03;2.92;;;14.50;99.90;;;13.11;100.00;98800.94;10289206;28;96720;-84
2023/10/25 08:09:18;;;;;;;4.88;2.70;;;14.50;99.90;;;13.10;100.00;98797.44;10294858;28;96706;-85
2023/10/25 08:14:21;;;;;;;4.40;2.42;;;14.40;99.90;;;13.12;100.00;98800.72;10354610;28;97884;-86
2023/10/25 08:19:25;;;;;;;3.63;2.63;;;14.50;99.90;;;13.15;100.00;98814.66;10325575;28;98921;-85
2023/10/25 08:24:29;;;;;;;6.20;2.67;;;14.50;99.90;;;13.23;100.00;98820.56;10342748;28;96620;-84
2023/10/25 08:29:35;;;;;;;4.18;2.97;;;14.60;99.90;;;13.38;100.00;98830.91;10334548;28;97872;-85
2023/10/25 08:34:46;;;;;;;4.18;2.30;;;14.70;99.90;;;13.47;100.00;98837.59;10321383;28;96572;-85
2023/10/25 08:39:51;;;;;;;3.45;1.85;;;14.80;99.90;;;13.56;100.00;98825.59;10307950;28;96713;-85
2023/10/25 08:44:55;;;;;;;4.45;2.63;;;14.90;99.90;;;13.65;100.00;98837.63;10330741;28;97360;-85
2023/10/25 08:49:59;;;;;;;4.55;2.20;;;15.00;99.90;;;13.78;100.00;98865.22;10338828;28;96766;-85
2023/10/25 08:55:06;;;;;;;4.07;2.40;;;15.20;99.90;;;13.85;100.00;98874.81;10325097;28;96831;-85
2023/10/25 09:00:12;;;;;;;4.80;2.85;;;15.20;99.90;;;13.91;100.00;98889.94;10362404;28;96354;-85
2023/10/25 09:05:16;;;;;;;4.45;2.50;;;15.30;99.90;;;13.91;100.00;98897.13;10328484;28;97997;-85
2023/10/25 09:10:19;;;;;;;3.78;2.30;;;15.30;99.90;;;13.95;100.00;98905.50;10305820;28;97331;-85
2023/10/25 09:15:30;;;;;;;2.88;2.15;;;15.40;99.90;;;13.94;100.00;98920.72;10328102;28;96518;-85
2023/10/25 09:20:33;;;;;;;2.80;2.00;;;15.40;99.90;;;14.00;100.00;98941.19;10332430;28;97074;-85
2023/10/25 09:25:37;;;;;;;2.78;1.75;;;15.40;99.90;;;14.03;100.00;98929.25;10317328;28;96591;-85
2023/10/25 09:30:42;;;;;;;3.60;1.95;;;15.40;99.90;;;14.03;100.00;98934.59;10322440;28;96542;-86
2023/10/25 09:35:46;;;;;;;2.33;1.58;;;15.40;99.90;;;13.98;100.00;98932.59;10349918;28;97249;-85
2023/10/25 09:40:57;;;;;;;3.42;1.90;;;15.40;99.90;;;14.01;100.00;98937.50;10315166;28;96690;-86
2023/10/25 09:46:05;;;;;;;2.97;1.95;;;15.40;99.90;;;14.03;100.00;98946.09;10337430;28;96624;-85
2023/10/25 09:51:28;;;;;;;1.85;1.27;;;15.40;99.90;;;14.09;100.00;98945.25;10310922;28;96684;-85
2023/10/25 09:56:33;;;;;;;2.45;1.60;;;15.50;99.90;;;14.12;100.00;98950.13;10348976;28;96726;-85
2023/10/25 10:01:39;;;;;;;2.58;1.52;;;15.50;99.90;;;14.14;100.00;98958.72;10337264;28;96770;-85
2023/10/25 10:07:08;;;;;;;1.58;1.00;;;15.50;99.90;;;14.20;100.00;98963.19;10336503;28;96681;-85
2023/10/25 10:12:12;;;;;;;2.05;1.20;;;15.60;99.90;;;14.28;100.00;98963.94;10363697;28;96800;-84
2023/10/25 10:17:18;;;;;;;1.98;1.00;;;15.70;99.90;;;14.38;100.00;98946.34;10332369;28;97380;-85
2023/10/25 10:22:23;;;;;;;1.77;1.10;;;15.80;99.90;;;14.72;100.00;98942.28;10329566;28;98220;-85
2023/10/25 10:28:01;;;;;;;1.52;0.90;;;16.10;99.90;;;15.17;100.00;98928.50;10326659;28;96928;-85
2023/10/25 10:33:12;;;;;;;1.65;0.90;;;16.50;99.90;;;15.35;97.28;98938.28;10309298;28;96680;-85
2023/10/25 10:38:16;;;;;;;1.52;0.88;;;16.70;99.90;;;15.48;95.36;98923.91;10322054;28;98986;-84
2023/10/25 10:43:20;;;;;;;1.67;1.02;;;16.80;99.90;;;15.61;93.43;98930.91;10353942;28;97134;-85
2023/10/25 10:48:34;;;;;;;1.40;0.90;;;17.00;99.90;;;15.57;93.11;98925.19;10291356;28;96959;-84
2023/10/25 10:53:39;;;;;;;1.55;1.00;;;17.00;99.90;;;15.72;94.61;98920.25;10310709;28;99058;-85
2023/10/25 10:58:43;;;;;;;1.60;0.80;;;17.10;99.90;;;16.01;92.73;98928.38;10331653;28;96651;-86
2023/10/25 11:03:49;;;;;;;1.88;1.00;;;17.30;99.90;;;16.18;90.04;98929.28;10334066;28;96643;-85
2023/10/25 11:08:53;;;;;;;1.25;0.88;;;17.60;99.90;;;16.26;86.51;98926.28;10311332;28;96602;-85
2023/10/25 11:13:57;;;;;;;1.42;0.98;;;17.70;99.90;;;16.14;84.48;98919.31;10341348;28;96783;-85
2023/10/25 11:19:08;;;;;;;1.05;0.80;;;17.60;99.90;;;16.16;86.99;98904.59;10314172;28;96694;-85
2023/10/25 11:24:12;;;;;;;1.50;0.90;;;17.60;99.90;;;16.35;84.96;98901.78;10333842;28;96500;-86
2023/10/25 11:29:16;;;;;;;0.85;0.50;;;17.70;99.90;;;16.60;84.16;98900.41;10296996;28;96645;-85
2023/10/25 11:34:21;;;;;;;1.05;0.70;;;18.00;99.90;;;16.78;79.14;98902.13;10315978;28;96806;-85
2023/10/25 11:39:25;;;;;;;1.20;0.73;;;18.20;99.90;;;16.85;81.03;98893.94;10307349;28;96648;-85
2023/10/25 11:44:30;;;;;;;1.08;0.65;;;18.10;99.90;;;16.85;79.24;98889.41;10307064;28;96452;-84
2023/10/25 11:49:35;;;;;;;0.65;0.55;;;18.20;99.90;;;16.93;79.42;98879.34;10302436;28;96634;-85
2023/10/25 11:54:38;;;;;;;1.27;0.70;;;18.20;99.90;;;16.93;77.76;98879.34;10331505;28;96573;-84
2023/10/25 11:59:42;;;;;;;0.77;0.60;;;18.20;99.90;;;16.98;77.76;98877.56;10314984;28;96569;-84
2023/10/25 12:04:46;;;;;;;0.88;0.52;;;18.30;99.80;;;16.92;76.37;98872.34;10312554;28;98718;-85
2023/10/25 12:09:52;;;;;;;0.80;0.60;;;18.20;99.00;;;16.88;78.01;98871.19;10331954;28;97810;-84
2023/10/25 12:14:56;;;;;;;1.05;0.50;;;18.20;99.60;;;16.85;76.90;98883.19;10324781;28;96778;-85
2023/10/25 12:19:59;;;;;;;1.35;0.50;;;18.20;99.30;;;16.82;75.42;98897.91;10313342;28;97091;-84
2023/10/25 12:25:24;;;;;;;1.23;0.60;;;18.20;98.70;;;16.74;76.10;98898.31;10337199;28;98450;-84
2023/10/25 12:30:28;;;;;;;0.85;0.60;;;18.10;98.70;;;16.60;75.30;98896.91;10329375;28;96646;-84
2023/10/25 12:35:31;;;;;;;1.27;0.52;;;18.00;98.60;;;16.53;77.07;98891.69;10321229;28;98574;-84
2023/10/25 12:40:36;;;;;;;0.60;0.57;;;17.90;98.90;;;16.58;78.15;98872.22;10329056;28;97156;-84
2023/10/25 12:45:40;;;;;;;0.73;0.45;;;17.90;99.30;;;16.60;77.30;98862.06;10344906;28;96577;-84
2023/10/25 12:50:43;;;;;;;2.33;0.70;;;18.00;99.10;;;16.61;76.79;98866.34;10330233;28;96562;-85
2023/10/25 12:55:48;;;;;;;0.73;0.50;;;18.00;98.80;;;16.60;77.09;98848.63;10358823;28;98302;-84
2023/10/25 13:00:54;;;;;;;0.90;0.60;;;18.00;98.60;;;16.60;76.82;98851.31;10328970;28;96654;-84
2023/10/25 13:05:58;;;;;;;1.02;0.57;;;18.00;98.80;;;16.65;78.06;98861.34;10317694;28;96635;-84
2023/10/25 13:11:02;;;;;;;2.08;0.43;;;18.00;99.10;;;16.64;77.05;98857.84;10317854;28;97391;-84
2023/10/25 13:16:06;;;;;;;0.95;0.50;;;18.10;98.70;;;16.62;78.11;98859.97;10343665;28;96384;-84
2023/10/25 13:21:10;;;;;;;1.25;0.70;;;18.00;99.00;;;16.63;75.63;98855.41;10358207;28;97967;-85
2023/10/25 13:26:14;;;;;;;0.88;0.65;;;18.10;98.60;;;16.62;75.96;98857.28;10336205;28;98087;-84
2023/10/25 13:31:17;;;;;;;0.65;0.40;;;18.00;98.30;;;16.59;76.45;98874.66;10341899;28;96558;-84
2023/10/25 13:36:21;;;;;;;1.13;0.68;;;18.00;98.50;;;16.59;77.63;98871.16;10300904;28;96596;-84
2023/10/25 13:41:25;;;;;;;8.18;3.42;;;18.00;98.60;;;16.60;77.99;98875.47;10301530;28;97492;-84
2023/10/25 13:46:29;;;;;;;15.95;9.32;;;18.00;98.80;;;16.55;77.95;98868.16;10336035;28;96387;-84
2023/10/25 13:51:33;;;;;;;1.70;1.20;;;18.00;98.80;;;16.46;78.10;98876.81;10330840;28;98244;-84
2023/10/25 13:56:37;;;;;;;1.00;0.70;;;17.90;98.70;;;16.38;78.06;98877.19;10321998;28;96633;-84
2023/10/25 14:01:41;;;;;;;0.85;0.60;;;17.80;98.80;;;16.26;79.54;98864.63;10318990;28;96881;-84
2023/10/25 14:06:45;;;;;;;2.20;1.48;;;17.70;99.10;;;16.20;80.23;98873.63;10327273;28;96587;-84
2023/10/25 14:11:49;;;;;;;1.35;0.80;;;17.60;99.30;;;16.19;80.79;98858.59;10308520;28;96526;-84
2023/10/25 14:16:55;;;;;;;1.30;0.80;;;17.60;99.60;;;16.20;81.16;98843.31;10321405;28;97733;-84
2023/10/25 14:21:59;;;;;;;8.20;3.97;;;17.70;99.60;;;16.17;81.57;98855.31;10327095;28;96748;-84
2023/10/25 14:27:03;;;;;;;1.85;1.20;;;17.60;99.60;;;16.14;81.78;98863.84;10319758;28;96575;-84
2023/10/25 14:32:07;;;;;;;2.78;1.70;;;17.60;99.80;;;16.11;82.18;98855.44;10320862;28;96567;-84
2023/10/25 14:37:11;;;;;;;5.00;3.55;;;17.60;99.90;;;16.09;83.76;98854.88;10323185;28;98315;-84
2023/10/25 14:42:15;;;;;;;4.15;2.75;;;17.50;99.90;;;16.06;85.91;98859.63;10302947;28;97712;-84
2023/10/25 14:47:18;;;;;;;3.33;2.08;;;17.60;99.90;;;16.03;86.93;98856.63;10352451;28;96631;-85
2023/10/25 14:52:22;;;;;;;7.88;2.50;;;17.60;99.90;;;15.99;88.08;98861.63;10321864;28;96541;-84
2023/10/25 14:57:26;;;;;;;8.57;3.88;;;17.50;99.90;;;15.94;89.90;98858.84;10329290;27;97472;-84
2023/10/25 15:02:29;;;;;;;2.85;1.42;;;17.50;99.90;;;15.86;90.91;98855.72;10347467;28;96665;-84
2023/10/25 15:07:34;;;;;;;6.80;0.90;;;17.40;99.90;;;15.79;92.03;98859.34;10325721;28;97718;-84
2023/10/25 15:12:40;;;;;;;15.00;2.25;;;17.30;99.90;;;15.69;92.53;98859.09;10329931;28;96648;-84
2023/10/25 15:17:47;;;;;;;2.60;1.30;;;17.30;99.90;;;15.64;93.48;98850.13;10308378;28;96447;-84
2023/10/25 15:22:52;;;;;;;2.55;1.25;;;17.20;99.90;;;15.57;94.91;98849.41;10293731;28;96506;-84
2023/10/25 15:27:56;;;;;;;2.40;1.42;;;17.10;99.90;;;15.49;96.06;98848.72;10316222;28;97544;-84
2023/10/25 15:33:02;;;;;;;4.70;2.03;;;17.10;99.90;;;15.43;97.24;98832.78;10331669;28;97396;-84
2023/10/25 15:38:06;;;;;;;22.63;9.82;;;17.00;99.90;;;15.35;97.78;98825.06;10339409;28;96737;-84
2023/10/25 15:43:10;;;;;;;4.25;2.60;;;16.90;99.90;;;15.24;98.79;98826.72;10347257;28;97678;-84
2023/10/25 15:48:14;;;;;;;2.30;1.15;;;16.70;99.90;;;15.13;99.83;98828.31;10340204;28;97466;-84
2023/10/25 15:53:18;;;;;;;1.23;0.90;;;16.60;99.90;;;15.06;100.00;98811.56;10292431;28;99234;-84
2023/10/25 15:58:22;;;;;;;4.35;2.38;;;16.60;99.90;;;14.94;99.99;98810.72;10321305;28;98302;-84
2023/10/25 16:03:26;;;;;;;5.57;3.22;;;16.50;99.90;;;14.82;100.00;98804.56;10353456;28;96654;-84
2023/10/25 16:08:31;;;;;;;115.82;11.65;;;16.40;99.90;;;14.74;100.00;98797.66;10314617;28;97820;-84
2023/10/25 16:13:35;;;;;;;3.70;2.10;;;16.30;99.90;;;14.65;100.00;98789.16;10326850;28;96753;-84
2023/10/25 16:18:39;;;;;;;4.07;2.38;;;16.20;99.90;;;14.51;100.00;98782.34;10330732;28;96691;-83
2023/10/25 16:23:45;;;;;;;5.03;2.85;;;16.00;99.90;;;14.41;100.00;98787.41;10344585;28;96639;-84
2023/10/25 16:28:49;;;;;;;3.75;2.17;;;15.90;99.90;;;14.33;100.00;98777.84;10317756;28;96811;-84
2023/10/25 16:33:54;;;;;;;5.97;2.38;;;15.80;99.90;;;14.23;100.00;98782.13;10323631;28;96887;-83
2023/10/25 16:38:57;;;;;;;3.40;1.73;;;15.70;99.90;;;14.08;100.00;98777.16;10318381;28;97107;-84
2023/10/25 16:44:01;;;;;;;2.10;1.30;;;15.60;99.90;;;13.97;100.00;98769.91;10299631;28;96698;-83
2023/10/25 16:49:04;;;;;;;2.35;1.50;;;15.50;99.90;;;13.90;100.00;98776.13;10323705;28;96953;-84
2023/10/25 16:54:08;;;;;;;1.42;0.80;;;15.40;99.90;;;13.84;100.00;98776.22;10324380;28;96833;-83
2023/10/25 16:59:12;;;;;;;1.58;0.70;;;15.40;99.90;;;13.80;100.00;98785.72;10308339;28;96755;-83
2023/10/25 17:04:16;;;;;;;2.10;1.20;;;15.30;99.90;;;13.76;100.00;98784.53;10332872;28;96639;-83
2023/10/25 17:09:22;;;;;;;1.05;0.90;;;15.30;99.90;;;13.75;100.00;98781.06;10342945;28;98431;-83
2023/10/25 17:14:27;;;;;;;2.60;1.10;;;15.30;99.90;;;13.72;100.00;98764.66;10286446;28;96995;-83
2023/10/25 17:19:31;;;;;;;10.38;1.83;;;15.30;99.90;;;13.74;100.00;98759.94;10322220;28;97017;-83
2023/10/25 17:24:35;;;;;;;1.90;1.10;;;15.30;99.90;;;13.71;100.00;98757.69;10317939;28;97729;-84
2023/10/25 17:29:39;;;;;;;4.68;1.58;;;15.20;99.90;;;13.66;100.00;98755.69;10323718;28;98068;-84
2023/10/25 17:34:46;;;;;;;32.15;3.55;;;15.20;99.90;;;13.64;100.00;98760.44;10310084;28;96629;-84
2023/10/25 17:39:51;;;;;;;11.70;5.40;;;15.20;99.90;;;13.59;100.00;98746.94;10319683;28;96839;-84
2023/10/25 17:44:55;;;;;;;17.90;9.15;;;15.20;99.90;;;13.57;100.00;98743.69;10309379;28;97358;-84
2023/10/25 17:49:59;;;;;;;63.03;20.63;;;15.10;99.90;;;13.54;100.00;98744.13;10315455;28;96683;-84
2023/10/25 17:55:03;;;;;;;50.47;18.50;;;15.10;99.90;;;13.53;100.00;98743.28;10311903;28;96547;-84
2023/10/25 18:00:09;;;;;;;35.90;14.38;;;15.10;99.90;;;13.53;100.00;98743.28;10314114;28;98020;-84
2023/10/25 18:05:12;;;;;;;28.30;12.18;;;15.10;99.90;;;13.53;100.00;98737.97;10312275;28;96989;-84
2023/10/25 18:10:20;;;;;;;25.35;11.27;;;15.10;99.90;;;13.48;100.00;98737.00;10320555;28;96907;-83
2023/10/25 18:15:24;;;;;;;15.32;9.13;;;15.10;99.90;;;13.45;100.00;98734.78;10327369;28;97617;-84
2023/10/25 18:20:30;;;;;;;18.80;9.45;;;15.00;99.90;;;13.39;100.00;98736.47;10329246;28;98445;-84
2023/10/25 18:25:33;;;;;;;18.55;9.52;;;14.90;99.90;;;13.34;100.00;98736.31;10344452;28;96704;-84
2023/10/25 18:30:40;;;;;;;22.88;9.85;;;14.90;99.90;;;13.29;100.00;98746.84;10324591;28;97379;-84
2023/10/25 18:36:10;;;;;;;19.37;9.53;;;14.80;99.90;;;13.20;100.00;98737.47;10332525;28;97010;-84
2023/10/25 18:41:17;;;;;;;15.75;6.05;;;14.70;99.90;;;13.12;100.00;98752.69;10312274;28;96727;-84
2023/10/25 18:46:21;;;;;;;12.77;6.00;;;14.70;99.90;;;13.08;100.00;98759.53;10346085;28;96693;-84
2023/10/25 18:51:27;;;;;;;10.02;5.85;;;14.60;99.90;;;13.07;100.00;98752.56;10311367;28;97996;-84
2023/10/25 18:56:34;;;;;;;9.20;5.05;;;14.60;99.90;;;13.07;100.00;98752.56;10333826;28;96719;-84
2023/10/25 19:01:37;;;;;;;12.18;5.57;;;14.60;99.90;;;13.07;100.00;98749.91;10309064;28;96589;-84
2023/10/25 19:06:41;;;;;;;9.82;5.32;;;14.60;99.90;;;13.07;100.00;98746.41;10297893;28;96616;-84
2023/10/25 19:11:54;;;;;;;12.40;6.68;;;14.60;99.90;;;13.05;100.00;98741.28;10310825;28;98509;-84
2023/10/25 19:16:57;;;;;;;13.27;6.03;;;14.60;99.90;;;13.05;100.00;98743.13;10321801;28;96772;-84
2023/10/25 19:22:02;;;;;;;11.48;6.35;;;14.60;99.90;;;13.05;100.00;98743.94;10312663;28;96668;-84
2023/10/25 19:27:07;;;;;;;10.85;5.57;;;14.60;99.90;;;13.07;100.00;98744.56;10346038;28;98749;-83
2023/10/25 19:32:11;;;;;;;9.20;5.33;;;14.60;99.90;;;13.09;100.00;98747.81;10315926;28;96575;-84
2023/10/25 19:37:15;;;;;;;19.87;9.30;;;14.60;99.90;;;13.07;100.00;98733.91;10324848;28;97908;-84
2023/10/25 19:42:19;;;;;;;20.75;9.88;;;14.70;99.90;;;13.07;100.00;98723.25;10311968;28;96654;-84
2023/10/25 19:47:25;;;;;;;17.08;8.77;;;14.70;99.90;;;13.09;100.00;98726.50;10306693;28;96881;-84
2023/10/25 19:52:31;;;;;;;20.20;9.43;;;14.60;99.90;;;13.05;100.00;98721.81;10323988;28;97291;-84
2023/10/25 19:57:36;;;;;;;13.32;7.53;;;14.60;99.90;;;12.99;100.00;98725.34;10323476;28;97727;-84
2023/10/25 20:02:42;;;;;;;12.23;6.97;;;14.60;99.90;;;12.93;100.00;98727.03;10331809;28;96699;-84
2023/10/25 20:07:46;;;;;;;12.43;6.20;;;14.50;99.90;;;12.91;100.00;98712.31;10299879;28;96601;-85
2023/10/25 20:12:49;;;;;;;9.40;5.13;;;14.40;99.90;;;12.87;100.00;98701.25;10303590;28;96614;-84
2023/10/25 20:17:53;;;;;;;7.17;4.50;;;14.40;99.90;;;12.87;100.00;98711.91;10282757;28;96916;-84
2023/10/25 20:23:00;;;;;;;11.93;6.63;;;14.40;99.90;;;12.85;100.00;98698.81;10338307;28;98612;-84
2023/10/25 20:28:04;;;;;;;8.20;4.50;;;14.40;99.90;;;12.80;100.00;98705.84;10344048;28;96646;-84
2023/10/25 20:33:07;;;;;;;9.20;5.07;;;14.30;99.90;;;12.74;100.00;98701.38;10316126;28;97530;-84
2023/10/25 20:38:11;;;;;;;10.47;5.90;;;14.20;99.90;;;12.68;100.00;98686.25;10302166;28;98633;-84
2023/10/25 20:43:15;;;;;;;8.43;5.03;;;14.20;99.90;;;12.64;100.00;98679.72;10330828;28;97568;-84
2023/10/25 20:48:19;;;;;;;9.90;5.03;;;14.20;99.90;;;12.61;100.00;98673.00;10305786;28;96627;-84
2023/10/25 20:53:24;;;;;;;8.70;5.37;;;14.10;99.90;;;12.56;100.00;98668.31;10330488;28;97437;-84